sensor_id;sensor_type;location;lat;lon;timestamp;pressure;altitude;pressure_sealevel;temperature
64904;BMP280;51401;48.882;12.598;2023-09-12T00:00:47;64114.28;;;-137.53
64904;BMP280;51401;48.882;12.598;2023-09-12T00:03:13;64114.28;;;-137.53
64904;BMP280;51401;48.882;12.598;2023-09-12T00:05:38;64114.28;;;-137.53
64904;BMP280;51401;48.882;12.598;2023-09-12T00:08:04;64110.31;;;-137.53
64904;BMP280;51401;48.882;12.598;2023-09-12T00:10:30;64112.28;;;-137.53
64904;BMP280;51401;48.882;12.598;2023-09-12T00:12:55;64112.28;;;-137.53
64904;BMP280;51401;48.882;12.598;2023-09-12T00:15:21;64116.25;;;-137.53
64904;BMP280;51401;48.882;12.598;2023-09-12T00:17:46;64116.25;;;-137.53
64904;BMP280;51401;48.882;12.598;2023-09-12T00:20:14;64116.25;;;-137.53
64904;BMP280;51401;48.882;12.598;2023-09-12T00:22:39;64110.31;;;-137.53
64904;BMP280;51401;48.882;12.598;2023-09-12T00:25:05;64114.28;;;-137.53
64904;BMP280;51401;48.882;12.598;2023-09-12T00:27:30;64112.28;;;-137.53
64904;BMP280;51401;48.882;12.598;2023-09-12T00:29:55;64114.28;;;-137.53
64904;BMP280;51401;48.882;12.598;2023-09-12T00:32:21;64112.28;;;-137.53
64904;BMP280;51401;48.882;12.598;2023-09-12T00:34:46;64116.25;;;-137.53
64904;BMP280;51401;48.882;12.598;2023-09-12T00:37:11;64114.28;;;-137.53
64904;BMP280;51401;48.882;12.598;2023-09-12T00:39:37;64114.28;;;-137.53
64904;BMP280;51401;48.882;12.598;2023-09-12T00:42:02;64116.25;;;-137.53
64904;BMP280;51401;48.882;12.598;2023-09-12T00:44:28;64114.28;;;-137.53
64904;BMP280;51401;48.882;12.598;2023-09-12T00:46:54;64118.25;;;-137.53
64904;BMP280;51401;48.882;12.598;2023-09-12T00:49:20;64112.28;;;-137.53
64904;BMP280;51401;48.882;12.598;2023-09-12T00:51:48;64116.25;;;-137.53
64904;BMP280;51401;48.882;12.598;2023-09-12T00:54:14;64114.28;;;-137.53
64904;BMP280;51401;48.882;12.598;2023-09-12T00:56:39;64116.25;;;-137.53
64904;BMP280;51401;48.882;12.598;2023-09-12T00:59:05;64116.25;;;-137.53
64904;BMP280;51401;48.882;12.598;2023-09-12T01:01:31;64116.25;;;-137.53
64904;BMP280;51401;48.882;12.598;2023-09-12T01:03:58;64116.25;;;-137.53
64904;BMP280;51401;48.882;12.598;2023-09-12T01:06:24;64116.25;;;-137.53
64904;BMP280;51401;48.882;12.598;2023-09-12T01:08:51;64116.25;;;-137.53
64904;BMP280;51401;48.882;12.598;2023-09-12T01:11:17;64116.25;;;-137.53
64904;BMP280;51401;48.882;12.598;2023-09-12T01:13:42;64114.28;;;-137.53
64904;BMP280;51401;48.882;12.598;2023-09-12T01:16:08;64116.25;;;-137.53
64904;BMP280;51401;48.882;12.598;2023-09-12T01:18:33;64116.25;;;-137.53
64904;BMP280;51401;48.882;12.598;2023-09-12T01:26:49;64114.28;;;-137.53
64904;BMP280;51401;48.882;12.598;2023-09-12T01:29:18;64112.28;;;-137.53
64904;BMP280;51401;48.882;12.598;2023-09-12T01:31:46;64114.28;;;-137.53
64904;BMP280;51401;48.882;12.598;2023-09-12T01:34:12;64116.25;;;-137.53
64904;BMP280;51401;48.882;12.598;2023-09-12T01:36:38;64116.25;;;-137.53
64904;BMP280;51401;48.882;12.598;2023-09-12T01:39:03;64116.25;;;-137.53
64904;BMP280;51401;48.882;12.598;2023-09-12T01:41:31;64120.25;;;-137.53
64904;BMP280;51401;48.882;12.598;2023-09-12T01:43:57;64116.25;;;-137.53
64904;BMP280;51401;48.882;12.598;2023-09-12T01:46:25;64116.25;;;-137.53
64904;BMP280;51401;48.882;12.598;2023-09-12T01:48:53;64116.25;;;-137.53
64904;BMP280;51401;48.882;12.598;2023-09-12T01:51:21;64116.25;;;-137.53
64904;BMP280;51401;48.882;12.598;2023-09-12T01:53:47;64114.28;;;-137.53
64904;BMP280;51401;48.882;12.598;2023-09-12T01:56:13;64116.25;;;-137.53
64904;BMP280;51401;48.882;12.598;2023-09-12T01:58:38;64112.28;;;-137.53
64904;BMP280;51401;48.882;12.598;2023-09-12T02:01:04;64116.25;;;-137.53
64904;BMP280;51401;48.882;12.598;2023-09-12T02:03:29;64118.25;;;-137.53
64904;BMP280;51401;48.882;12.598;2023-09-12T02:05:55;64116.25;;;-137.53
64904;BMP280;51401;48.882;12.598;2023-09-12T02:08:20;64114.28;;;-137.53
64904;BMP280;51401;48.882;12.598;2023-09-12T02:10:45;64114.28;;;-137.53
64904;BMP280;51401;48.882;12.598;2023-09-12T02:13:11;64114.28;;;-137.53
64904;BMP280;51401;48.882;12.598;2023-09-12T02:15:36;64118.25;;;-137.53
64904;BMP280;51401;48.882;12.598;2023-09-12T02:18:01;64116.25;;;-137.53
64904;BMP280;51401;48.882;12.598;2023-09-12T02:20:27;64116.25;;;-137.53
64904;BMP280;51401;48.882;12.598;2023-09-12T02:22:52;64114.28;;;-137.53
64904;BMP280;51401;48.882;12.598;2023-09-12T02:25:18;64112.28;;;-137.53
64904;BMP280;51401;48.882;12.598;2023-09-12T02:27:43;64116.25;;;-137.53
64904;BMP280;51401;48.882;12.598;2023-09-12T02:30:09;64116.25;;;-137.53
64904;BMP280;51401;48.882;12.598;2023-09-12T02:32:34;64112.28;;;-137.53
64904;BMP280;51401;48.882;12.598;2023-09-12T02:35:00;64116.25;;;-137.53
64904;BMP280;51401;48.882;12.598;2023-09-12T02:37:25;64116.25;;;-137.53
64904;BMP280;51401;48.882;12.598;2023-09-12T02:39:50;64118.25;;;-137.53
64904;BMP280;51401;48.882;12.598;2023-09-12T02:42:16;64116.25;;;-137.53
64904;BMP280;51401;48.882;12.598;2023-09-12T02:44:41;64116.25;;;-137.53
64904;BMP280;51401;48.882;12.598;2023-09-12T02:47:06;64116.25;;;-137.53
64904;BMP280;51401;48.882;12.598;2023-09-12T02:49:32;64116.25;;;-137.53
64904;BMP280;51401;48.882;12.598;2023-09-12T02:51:57;64116.25;;;-137.53
64904;BMP280;51401;48.882;12.598;2023-09-12T02:54:23;64116.25;;;-137.53
64904;BMP280;51401;48.882;12.598;2023-09-12T02:56:48;64120.25;;;-137.53
64904;BMP280;51401;48.882;12.598;2023-09-12T02:59:14;64114.28;;;-137.53
64904;BMP280;51401;48.882;12.598;2023-09-12T03:01:39;64116.25;;;-137.53
64904;BMP280;51401;48.882;12.598;2023-09-12T03:04:04;64118.25;;;-137.53
64904;BMP280;51401;48.882;12.598;2023-09-12T03:06:29;64116.25;;;-137.53
64904;BMP280;51401;48.882;12.598;2023-09-12T03:08:55;64116.25;;;-137.53
64904;BMP280;51401;48.882;12.598;2023-09-12T03:11:21;64118.25;;;-137.53
64904;BMP280;51401;48.882;12.598;2023-09-12T03:13:46;64114.28;;;-137.53
64904;BMP280;51401;48.882;12.598;2023-09-12T03:16:12;64118.25;;;-137.53
64904;BMP280;51401;48.882;12.598;2023-09-12T03:18:38;64118.25;;;-137.53
64904;BMP280;51401;48.882;12.598;2023-09-12T03:21:04;64116.25;;;-137.53
64904;BMP280;51401;48.882;12.598;2023-09-12T03:23:29;64114.28;;;-137.53
64904;BMP280;51401;48.882;12.598;2023-09-12T03:25:54;64116.25;;;-137.53
64904;BMP280;51401;48.882;12.598;2023-09-12T03:28:20;64118.25;;;-137.53
64904;BMP280;51401;48.882;12.598;2023-09-12T03:30:46;64120.25;;;-137.53
64904;BMP280;51401;48.882;12.598;2023-09-12T03:33:11;64116.25;;;-137.53
64904;BMP280;51401;48.882;12.598;2023-09-12T03:35:36;64116.25;;;-137.53
64904;BMP280;51401;48.882;12.598;2023-09-12T03:38:02;64118.25;;;-137.53
64904;BMP280;51401;48.882;12.598;2023-09-12T03:40:28;64118.25;;;-137.53
64904;BMP280;51401;48.882;12.598;2023-09-12T03:42:54;64118.25;;;-137.53
64904;BMP280;51401;48.882;12.598;2023-09-12T03:45:20;64116.25;;;-137.53
64904;BMP280;51401;48.882;12.598;2023-09-12T03:47:45;64118.25;;;-137.53
64904;BMP280;51401;48.882;12.598;2023-09-12T03:50:12;64118.25;;;-137.53
64904;BMP280;51401;48.882;12.598;2023-09-12T03:52:38;64118.25;;;-137.53
64904;BMP280;51401;48.882;12.598;2023-09-12T03:55:03;64114.28;;;-137.53
64904;BMP280;51401;48.882;12.598;2023-09-12T03:57:29;64120.25;;;-137.53
64904;BMP280;51401;48.882;12.598;2023-09-12T03:59:54;64118.25;;;-137.53
64904;BMP280;51401;48.882;12.598;2023-09-12T04:02:19;64120.25;;;-137.53
64904;BMP280;51401;48.882;12.598;2023-09-12T04:04:45;64118.25;;;-137.53
64904;BMP280;51401;48.882;12.598;2023-09-12T04:07:10;64116.25;;;-137.53
64904;BMP280;51401;48.882;12.598;2023-09-12T04:09:35;64118.25;;;-137.53
64904;BMP280;51401;48.882;12.598;2023-09-12T04:12:01;64118.25;;;-137.53
64904;BMP280;51401;48.882;12.598;2023-09-12T04:14:26;64112.28;;;-137.53
64904;BMP280;51401;48.882;12.598;2023-09-12T04:16:51;64118.25;;;-137.53
64904;BMP280;51401;48.882;12.598;2023-09-12T04:19:17;64118.25;;;-137.53
64904;BMP280;51401;48.882;12.598;2023-09-12T04:21:42;64118.25;;;-137.53
64904;BMP280;51401;48.882;12.598;2023-09-12T04:24:07;64118.25;;;-137.53
64904;BMP280;51401;48.882;12.598;2023-09-12T04:26:33;64116.25;;;-137.53
64904;BMP280;51401;48.882;12.598;2023-09-12T04:28:58;64120.25;;;-137.53
64904;BMP280;51401;48.882;12.598;2023-09-12T04:31:24;64120.25;;;-137.53
64904;BMP280;51401;48.882;12.598;2023-09-12T04:33:53;64116.25;;;-137.53
64904;BMP280;51401;48.882;12.598;2023-09-12T04:36:20;64118.25;;;-137.53
64904;BMP280;51401;48.882;12.598;2023-09-12T04:38:45;64124.22;;;-137.53
64904;BMP280;51401;48.882;12.598;2023-09-12T04:41:12;64120.25;;;-137.53
64904;BMP280;51401;48.882;12.598;2023-09-12T04:43:42;64116.25;;;-137.53
64904;BMP280;51401;48.882;12.598;2023-09-12T04:46:09;64116.25;;;-137.53
64904;BMP280;51401;48.882;12.598;2023-09-12T04:48:34;64118.25;;;-137.53
64904;BMP280;51401;48.882;12.598;2023-09-12T04:50:59;64118.25;;;-137.53
64904;BMP280;51401;48.882;12.598;2023-09-12T04:53:25;64120.25;;;-137.53
64904;BMP280;51401;48.882;12.598;2023-09-12T04:55:56;64118.25;;;-137.53
64904;BMP280;51401;48.882;12.598;2023-09-12T04:58:21;64118.25;;;-137.53
64904;BMP280;51401;48.882;12.598;2023-09-12T05:00:46;64116.25;;;-137.53
64904;BMP280;51401;48.882;12.598;2023-09-12T05:03:12;64116.25;;;-137.53
64904;BMP280;51401;48.882;12.598;2023-09-12T05:05:37;64116.25;;;-137.53
64904;BMP280;51401;48.882;12.598;2023-09-12T05:08:03;64118.25;;;-137.53
64904;BMP280;51401;48.882;12.598;2023-09-12T05:10:29;64116.25;;;-137.53
64904;BMP280;51401;48.882;12.598;2023-09-12T05:12:55;64116.25;;;-137.53
64904;BMP280;51401;48.882;12.598;2023-09-12T05:15:20;64114.28;;;-137.53
64904;BMP280;51401;48.882;12.598;2023-09-12T05:17:45;64116.25;;;-137.53
64904;BMP280;51401;48.882;12.598;2023-09-12T05:20:11;64118.25;;;-137.53
64904;BMP280;51401;48.882;12.598;2023-09-12T05:22:36;64112.28;;;-137.53
64904;BMP280;51401;48.882;12.598;2023-09-12T05:25:01;64112.28;;;-137.53
64904;BMP280;51401;48.882;12.598;2023-09-12T05:27:27;64116.25;;;-137.53
64904;BMP280;51401;48.882;12.598;2023-09-12T05:29:52;64114.28;;;-137.53
64904;BMP280;51401;48.882;12.598;2023-09-12T05:32:17;64112.28;;;-137.53
64904;BMP280;51401;48.882;12.598;2023-09-12T05:34:42;64112.28;;;-137.53
64904;BMP280;51401;48.882;12.598;2023-09-12T05:37:08;64112.28;;;-137.53
64904;BMP280;51401;48.882;12.598;2023-09-12T05:39:33;64114.28;;;-137.53
64904;BMP280;51401;48.882;12.598;2023-09-12T05:41:58;64112.28;;;-137.53
64904;BMP280;51401;48.882;12.598;2023-09-12T05:44:24;64112.28;;;-137.53
64904;BMP280;51401;48.882;12.598;2023-09-12T05:46:49;64112.28;;;-137.53
64904;BMP280;51401;48.882;12.598;2023-09-12T05:49:14;64110.31;;;-137.53
64904;BMP280;51401;48.882;12.598;2023-09-12T05:51:40;64112.28;;;-137.53
64904;BMP280;51401;48.882;12.598;2023-09-12T05:54:06;64108.31;;;-137.53
64904;BMP280;51401;48.882;12.598;2023-09-12T05:56:33;64110.31;;;-137.53
64904;BMP280;51401;48.882;12.598;2023-09-12T05:58:58;64108.31;;;-137.53
64904;BMP280;51401;48.882;12.598;2023-09-12T06:01:24;64108.31;;;-137.53
64904;BMP280;51401;48.882;12.598;2023-09-12T06:03:49;64108.31;;;-137.53
64904;BMP280;51401;48.882;12.598;2023-09-12T06:06:14;64108.31;;;-137.53
64904;BMP280;51401;48.882;12.598;2023-09-12T06:08:39;64108.31;;;-137.53
64904;BMP280;51401;48.882;12.598;2023-09-12T06:11:05;64100.38;;;-137.53
64904;BMP280;51401;48.882;12.598;2023-09-12T06:13:31;64100.38;;;-137.53
64904;BMP280;51401;48.882;12.598;2023-09-12T06:15:59;64100.38;;;-137.53
64904;BMP280;51401;48.882;12.598;2023-09-12T06:18:24;64100.38;;;-137.53
64904;BMP280;51401;48.882;12.598;2023-09-12T06:20:50;64098.41;;;-137.53
64904;BMP280;51401;48.882;12.598;2023-09-12T06:23:15;64106.34;;;-137.53
64904;BMP280;51401;48.882;12.598;2023-09-12T06:25:40;64106.34;;;-137.53
64904;BMP280;51401;48.882;12.598;2023-09-12T06:28:09;64100.38;;;-137.53
64904;BMP280;51401;48.882;12.598;2023-09-12T06:30:35;64098.41;;;-137.53
64904;BMP280;51401;48.882;12.598;2023-09-12T06:33:00;64106.34;;;-137.53
64904;BMP280;51401;48.882;12.598;2023-09-12T06:35:25;64100.38;;;-137.53
64904;BMP280;51401;48.882;12.598;2023-09-12T06:37:51;64098.41;;;-137.53
64904;BMP280;51401;48.882;12.598;2023-09-12T06:40:16;64098.41;;;-137.53
64904;BMP280;51401;48.882;12.598;2023-09-12T06:42:42;64094.44;;;-137.53
64904;BMP280;51401;48.882;12.598;2023-09-12T06:45:08;64098.41;;;-137.53
64904;BMP280;51401;48.882;12.598;2023-09-12T06:47:33;64098.41;;;-137.53
64904;BMP280;51401;48.882;12.598;2023-09-12T06:49:58;64096.41;;;-137.53
64904;BMP280;51401;48.882;12.598;2023-09-12T06:52:24;64096.41;;;-137.53
64904;BMP280;51401;48.882;12.598;2023-09-12T06:54:49;64098.41;;;-137.53
64904;BMP280;51401;48.882;12.598;2023-09-12T06:57:14;64096.41;;;-137.53
64904;BMP280;51401;48.882;12.598;2023-09-12T06:59:40;64094.44;;;-137.53
64904;BMP280;51401;48.882;12.598;2023-09-12T07:02:06;64092.44;;;-137.53
64904;BMP280;51401;48.882;12.598;2023-09-12T07:04:32;64094.44;;;-137.53
64904;BMP280;51401;48.882;12.598;2023-09-12T07:06:57;64092.44;;;-137.53
64904;BMP280;51401;48.882;12.598;2023-09-12T07:09:23;64092.44;;;-137.53
64904;BMP280;51401;48.882;12.598;2023-09-12T07:11:49;64094.44;;;-137.53
64904;BMP280;51401;48.882;12.598;2023-09-12T07:14:14;64092.44;;;-137.53
64904;BMP280;51401;48.882;12.598;2023-09-12T07:16:40;64092.44;;;-137.53
64904;BMP280;51401;48.882;12.598;2023-09-12T07:19:05;64092.44;;;-137.53
64904;BMP280;51401;48.882;12.598;2023-09-12T07:21:31;64092.44;;;-137.53
64904;BMP280;51401;48.882;12.598;2023-09-12T07:23:57;64088.47;;;-137.53
64904;BMP280;51401;48.882;12.598;2023-09-12T07:26:22;64092.44;;;-137.53
64904;BMP280;51401;48.882;12.598;2023-09-12T07:28:48;64092.44;;;-137.53
64904;BMP280;51401;48.882;12.598;2023-09-12T07:31:14;64090.44;;;-137.53
64904;BMP280;51401;48.882;12.598;2023-09-12T07:33:39;64088.47;;;-137.53
64904;BMP280;51401;48.882;12.598;2023-09-12T07:36:06;64088.47;;;-137.53
64904;BMP280;51401;48.882;12.598;2023-09-12T07:38:31;64088.47;;;-137.53
64904;BMP280;51401;48.882;12.598;2023-09-12T07:40:57;64088.47;;;-137.53
64904;BMP280;51401;48.882;12.598;2023-09-12T07:43:23;64088.47;;;-137.53
64904;BMP280;51401;48.882;12.598;2023-09-12T07:45:48;64090.44;;;-137.53
64904;BMP280;51401;48.882;12.598;2023-09-12T07:48:14;64090.44;;;-137.53
64904;BMP280;51401;48.882;12.598;2023-09-12T07:50:40;64088.47;;;-137.53
64904;BMP280;51401;48.882;12.598;2023-09-12T07:53:06;64088.47;;;-137.53
64904;BMP280;51401;48.882;12.598;2023-09-12T07:55:32;64088.47;;;-137.53
64904;BMP280;51401;48.882;12.598;2023-09-12T07:58:02;64084.50;;;-137.53
64904;BMP280;51401;48.882;12.598;2023-09-12T08:00:27;64086.47;;;-137.53
64904;BMP280;51401;48.882;12.598;2023-09-12T08:02:52;64082.50;;;-137.53
64904;BMP280;51401;48.882;12.598;2023-09-12T08:05:18;64084.50;;;-137.53
64904;BMP280;51401;48.882;12.598;2023-09-12T08:07:44;64084.50;;;-137.53
64904;BMP280;51401;48.882;12.598;2023-09-12T08:10:09;64082.50;;;-137.53
64904;BMP280;51401;48.882;12.598;2023-09-12T08:12:36;64086.47;;;-137.53
64904;BMP280;51401;48.882;12.598;2023-09-12T08:15:04;64082.50;;;-137.53
64904;BMP280;51401;48.882;12.598;2023-09-12T08:17:30;64078.53;;;-137.53
64904;BMP280;51401;48.882;12.598;2023-09-12T08:19:55;64082.50;;;-137.53
64904;BMP280;51401;48.882;12.598;2023-09-12T08:22:20;64084.50;;;-137.53
64904;BMP280;51401;48.882;12.598;2023-09-12T08:24:46;64080.53;;;-137.53
64904;BMP280;51401;48.882;12.598;2023-09-12T08:27:11;64080.53;;;-137.53
64904;BMP280;51401;48.882;12.598;2023-09-12T08:29:37;64080.53;;;-137.53
64904;BMP280;51401;48.882;12.598;2023-09-12T08:32:03;64084.50;;;-137.53
64904;BMP280;51401;48.882;12.598;2023-09-12T08:34:29;64084.50;;;-137.53
64904;BMP280;51401;48.882;12.598;2023-09-12T08:36:54;64082.50;;;-137.53
64904;BMP280;51401;48.882;12.598;2023-09-12T08:39:27;64080.53;;;-137.53
64904;BMP280;51401;48.882;12.598;2023-09-12T08:41:53;64078.53;;;-137.53
64904;BMP280;51401;48.882;12.598;2023-09-12T08:44:20;64078.53;;;-137.53
64904;BMP280;51401;48.882;12.598;2023-09-12T08:46:46;64080.53;;;-137.53
64904;BMP280;51401;48.882;12.598;2023-09-12T08:49:11;64080.53;;;-137.53
64904;BMP280;51401;48.882;12.598;2023-09-12T08:51:38;64078.53;;;-137.53
64904;BMP280;51401;48.882;12.598;2023-09-12T08:54:05;64076.56;;;-137.53
64904;BMP280;51401;48.882;12.598;2023-09-12T08:56:32;64076.56;;;-137.53
64904;BMP280;51401;48.882;12.598;2023-09-12T08:58:58;64080.53;;;-137.53
64904;BMP280;51401;48.882;12.598;2023-09-12T09:01:25;64078.53;;;-137.53
64904;BMP280;51401;48.882;12.598;2023-09-12T09:03:53;64076.56;;;-137.53
64904;BMP280;51401;48.882;12.598;2023-09-12T09:06:19;64074.56;;;-137.53
64904;BMP280;51401;48.882;12.598;2023-09-12T09:08:45;64074.56;;;-137.53
64904;BMP280;51401;48.882;12.598;2023-09-12T09:11:11;64074.56;;;-137.53
64904;BMP280;51401;48.882;12.598;2023-09-12T09:13:36;64072.59;;;-137.53
64904;BMP280;51401;48.882;12.598;2023-09-12T09:16:14;64072.59;;;-137.53
64904;BMP280;51401;48.882;12.598;2023-09-12T09:18:50;64072.59;;;-137.53
64904;BMP280;51401;48.882;12.598;2023-09-12T09:21:20;64072.59;;;-137.53
64904;BMP280;51401;48.882;12.598;2023-09-12T09:23:47;64072.59;;;-137.53
64904;BMP280;51401;48.882;12.598;2023-09-12T09:26:12;64072.59;;;-137.53
64904;BMP280;51401;48.882;12.598;2023-09-12T09:28:38;64070.59;;;-137.53
64904;BMP280;51401;48.882;12.598;2023-09-12T09:31:05;64072.59;;;-137.53
64904;BMP280;51401;48.882;12.598;2023-09-12T09:33:35;64072.59;;;-137.53
64904;BMP280;51401;48.882;12.598;2023-09-12T09:36:03;64072.59;;;-137.53
64904;BMP280;51401;48.882;12.598;2023-09-12T09:38:29;64074.56;;;-137.53
64904;BMP280;51401;48.882;12.598;2023-09-12T09:40:54;64072.59;;;-137.53
64904;BMP280;51401;48.882;12.598;2023-09-12T09:43:21;64076.56;;;-137.53
64904;BMP280;51401;48.882;12.598;2023-09-12T09:45:46;64070.59;;;-137.53
64904;BMP280;51401;48.882;12.598;2023-09-12T09:48:22;64072.59;;;-137.53
64904;BMP280;51401;48.882;12.598;2023-09-12T09:50:48;64072.59;;;-137.53
64904;BMP280;51401;48.882;12.598;2023-09-12T09:53:13;64074.56;;;-137.53
64904;BMP280;51401;48.882;12.598;2023-09-12T09:55:39;64072.59;;;-137.53
64904;BMP280;51401;48.882;12.598;2023-09-12T09:58:07;64068.63;;;-137.53
64904;BMP280;51401;48.882;12.598;2023-09-12T10:00:37;64066.63;;;-137.53
64904;BMP280;51401;48.882;12.598;2023-09-12T10:03:04;64072.59;;;-137.53
64904;BMP280;51401;48.882;12.598;2023-09-12T10:05:32;64070.59;;;-137.53
64904;BMP280;51401;48.882;12.598;2023-09-12T10:07:59;64068.63;;;-137.53
64904;BMP280;51401;48.882;12.598;2023-09-12T10:10:26;64068.63;;;-137.53
64904;BMP280;51401;48.882;12.598;2023-09-12T10:12:56;64072.59;;;-137.53
64904;BMP280;51401;48.882;12.598;2023-09-12T10:15:22;64076.56;;;-137.53
64904;BMP280;51401;48.882;12.598;2023-09-12T10:17:56;64072.59;;;-137.53
64904;BMP280;51401;48.882;12.598;2023-09-12T10:20:25;64072.59;;;-137.53
64904;BMP280;51401;48.882;12.598;2023-09-12T10:23:01;64072.59;;;-137.53
64904;BMP280;51401;48.882;12.598;2023-09-12T10:25:29;64070.59;;;-137.53
64904;BMP280;51401;48.882;12.598;2023-09-12T10:27:55;64068.63;;;-137.53
64904;BMP280;51401;48.882;12.598;2023-09-12T10:30:22;64072.59;;;-137.53
64904;BMP280;51401;48.882;12.598;2023-09-12T10:32:48;64068.63;;;-137.53
64904;BMP280;51401;48.882;12.598;2023-09-12T10:35:14;64068.63;;;-137.53
64904;BMP280;51401;48.882;12.598;2023-09-12T10:37:44;64070.59;;;-137.53
64904;BMP280;51401;48.882;12.598;2023-09-12T10:40:11;64072.59;;;-137.53
64904;BMP280;51401;48.882;12.598;2023-09-12T10:42:39;64070.59;;;-137.53
64904;BMP280;51401;48.882;12.598;2023-09-12T10:45:05;64068.63;;;-137.53
64904;BMP280;51401;48.882;12.598;2023-09-12T10:47:34;64070.59;;;-137.53
64904;BMP280;51401;48.882;12.598;2023-09-12T10:50:01;64066.63;;;-137.53
64904;BMP280;51401;48.882;12.598;2023-09-12T10:52:27;64064.66;;;-137.53
64904;BMP280;51401;48.882;12.598;2023-09-12T10:54:53;64068.63;;;-137.53
64904;BMP280;51401;48.882;12.598;2023-09-12T10:57:19;64068.63;;;-137.53
64904;BMP280;51401;48.882;12.598;2023-09-12T11:02:42;64068.63;;;-137.53
64904;BMP280;51401;48.882;12.598;2023-09-12T11:07:56;64072.59;;;-137.53
64904;BMP280;51401;48.882;12.598;2023-09-12T11:10:22;64070.59;;;-137.53
64904;BMP280;51401;48.882;12.598;2023-09-12T11:12:57;64072.59;;;-137.53
64904;BMP280;51401;48.882;12.598;2023-09-12T11:15:24;64070.59;;;-137.53
64904;BMP280;51401;48.882;12.598;2023-09-12T11:18:00;64068.63;;;-137.53
64904;BMP280;51401;48.882;12.598;2023-09-12T11:20:26;64064.66;;;-137.53
64904;BMP280;51401;48.882;12.598;2023-09-12T11:22:51;64066.63;;;-137.53
64904;BMP280;51401;48.882;12.598;2023-09-12T11:25:25;64070.59;;;-137.53
64904;BMP280;51401;48.882;12.598;2023-09-12T11:30:17;64070.59;;;-137.53
64904;BMP280;51401;48.882;12.598;2023-09-12T11:32:46;64064.66;;;-137.53
64904;BMP280;51401;48.882;12.598;2023-09-12T11:35:12;64068.63;;;-137.53
64904;BMP280;51401;48.882;12.598;2023-09-12T11:37:38;64068.63;;;-137.53
64904;BMP280;51401;48.882;12.598;2023-09-12T11:40:15;64068.63;;;-137.53
64904;BMP280;51401;48.882;12.598;2023-09-12T11:42:42;64068.63;;;-137.53
64904;BMP280;51401;48.882;12.598;2023-09-12T11:45:11;64068.63;;;-137.53
64904;BMP280;51401;48.882;12.598;2023-09-12T11:47:40;64068.63;;;-137.53
64904;BMP280;51401;48.882;12.598;2023-09-12T11:50:06;64066.63;;;-137.53
64904;BMP280;51401;48.882;12.598;2023-09-12T11:52:36;64068.63;;;-137.53
64904;BMP280;51401;48.882;12.598;2023-09-12T11:55:01;64068.63;;;-137.53
64904;BMP280;51401;48.882;12.598;2023-09-12T11:57:27;64068.63;;;-137.53
64904;BMP280;51401;48.882;12.598;2023-09-12T11:59:52;64068.63;;;-137.53
64904;BMP280;51401;48.882;12.598;2023-09-12T12:02:17;64070.59;;;-137.53
64904;BMP280;51401;48.882;12.598;2023-09-12T12:04:44;64070.59;;;-137.53
64904;BMP280;51401;48.882;12.598;2023-09-12T12:07:10;64068.63;;;-137.53
64904;BMP280;51401;48.882;12.598;2023-09-12T12:09:36;64068.63;;;-137.53
64904;BMP280;51401;48.882;12.598;2023-09-12T12:12:13;64070.59;;;-137.53
64904;BMP280;51401;48.882;12.598;2023-09-12T12:14:40;64064.66;;;-137.53
64904;BMP280;51401;48.882;12.598;2023-09-12T12:17:10;64068.63;;;-137.53
64904;BMP280;51401;48.882;12.598;2023-09-12T12:19:37;64070.59;;;-137.53
64904;BMP280;51401;48.882;12.598;2023-09-12T12:22:04;64066.63;;;-137.53
64904;BMP280;51401;48.882;12.598;2023-09-12T12:24:41;64068.63;;;-137.53
64904;BMP280;51401;48.882;12.598;2023-09-12T12:27:07;64068.63;;;-137.53
64904;BMP280;51401;48.882;12.598;2023-09-12T12:29:34;64074.56;;;-137.53
64904;BMP280;51401;48.882;12.598;2023-09-12T12:32:01;64076.56;;;-137.53
64904;BMP280;51401;48.882;12.598;2023-09-12T12:34:27;64072.59;;;-137.53
64904;BMP280;51401;48.882;12.598;2023-09-12T12:36:53;64072.59;;;-137.53
64904;BMP280;51401;48.882;12.598;2023-09-12T12:39:20;64070.59;;;-137.53
64904;BMP280;51401;48.882;12.598;2023-09-12T12:41:46;64068.63;;;-137.53
64904;BMP280;51401;48.882;12.598;2023-09-12T12:44:11;64072.59;;;-137.53
64904;BMP280;51401;48.882;12.598;2023-09-12T12:46:48;64074.56;;;-137.53
64904;BMP280;51401;48.882;12.598;2023-09-12T12:49:15;64072.59;;;-137.53
64904;BMP280;51401;48.882;12.598;2023-09-12T12:51:42;64072.59;;;-137.53
64904;BMP280;51401;48.882;12.598;2023-09-12T12:54:08;64068.63;;;-137.53
64904;BMP280;51401;48.882;12.598;2023-09-12T12:56:33;64074.56;;;-137.53
64904;BMP280;51401;48.882;12.598;2023-09-12T12:59:00;64070.59;;;-137.53
64904;BMP280;51401;48.882;12.598;2023-09-12T13:01:29;64072.59;;;-137.53
64904;BMP280;51401;48.882;12.598;2023-09-12T13:03:55;64070.59;;;-137.53
64904;BMP280;51401;48.882;12.598;2023-09-12T13:06:22;64072.59;;;-137.53
64904;BMP280;51401;48.882;12.598;2023-09-12T13:08:48;64074.56;;;-137.53
64904;BMP280;51401;48.882;12.598;2023-09-12T13:11:15;64072.59;;;-137.53
64904;BMP280;51401;48.882;12.598;2023-09-12T13:13:42;64068.63;;;-137.53
64904;BMP280;51401;48.882;12.598;2023-09-12T13:16:10;64072.59;;;-137.53
64904;BMP280;51401;48.882;12.598;2023-09-12T13:18:39;64068.63;;;-137.53
64904;BMP280;51401;48.882;12.598;2023-09-12T13:21:05;64070.59;;;-137.53
64904;BMP280;51401;48.882;12.598;2023-09-12T13:23:33;64064.66;;;-137.53
64904;BMP280;51401;48.882;12.598;2023-09-12T13:25:59;64066.63;;;-137.53
64904;BMP280;51401;48.882;12.598;2023-09-12T13:28:24;64066.63;;;-137.53
64904;BMP280;51401;48.882;12.598;2023-09-12T13:30:53;64066.63;;;-137.53
64904;BMP280;51401;48.882;12.598;2023-09-12T13:33:18;64066.63;;;-137.53
64904;BMP280;51401;48.882;12.598;2023-09-12T13:35:43;64068.63;;;-137.53
64904;BMP280;51401;48.882;12.598;2023-09-12T13:38:09;64070.59;;;-137.53
64904;BMP280;51401;48.882;12.598;2023-09-12T13:40:36;64068.63;;;-137.53